Flight Track Log - Related Links

Times and Time Zones

All times are in EDT time to prevent confusion due to time zone crossing. See the QFA917 flight status page for this flight to view local times or setup timezone preferences in your user account.

Time Position Orientation Groundspeed Altitude Reporting Facility
EDT Latitude Longitude Course Direction KTS MPH feet Rate Location/Type
Sun 07:15:18 AM -20.7130 116.7720 137° Southeast 105 121  Level FlightAware ADS-B
Sun 07:15:36 AM -20.7744 116.7848 11° North 16,500 1,600 Climbing Aus ATC (Calculated)
Sun 07:15:48 AM -20.7110 116.7980 137° Southeast 156 180 800 -25,459 Descending FlightAware ADS-B
Sun 07:16:13 AM -20.7090 116.8140 82° East 156 180 800 2,182 Level FlightAware ADS-B
Sun 07:16:21 AM -20.7270 116.8140 180° South 167 192 2,000 2,250 Climbing FlightAware ADS-B
Sun 07:16:36 AM -20.8288 116.7950 16° North 16,500 900 Climbing Aus ATC (Calculated)
Sun 07:17:01 AM -20.7570 116.8170 180° South 167 192 2,600 -18,900 Descending FlightAware ADS-B
Sun 07:17:16 AM -20.7820 116.8120 191° South 241 277 3,900 1,592 Climbing FlightAware ADS-B
Sun 07:17:50 AM -20.8080 116.8120 180° South 241 277 3,900 2,953 Level FlightAware ADS-B
Sun 07:17:55 AM -20.9240 116.8127 181° South 16,500 3,409 Climbing Aus ATC (Calculated)
Sun 07:18:07 AM -20.9240 116.8127 181° South 16,500 -28 Level Aus ATC (Calculated)
Sun 07:19:36 AM -21.0667 116.8394 198° South 16,500 -30 Level Aus ATC (Calculated)
Sun 07:20:57 AM -21.2094 116.8661 316° Northwest 16,500 -53 Level Aus ATC (Calculated)
Sun 07:21:00 AM -21.2263 116.8277 184° South  Level Estimated
Sun 07:21:30 AM -21.1541 116.8086 184° South 351 404 16,400  Level Aus ATC (RADAR)
Sun 07:22:00 AM -21.2053 116.8091 179° South 353 406 17,900 2,585 Climbing Aus ATC (RADAR)
Sun 07:22:35 AM -21.2673 116.8082 181° South 366 421 19,200 2,492 Climbing Aus ATC (RADAR)
Sun 07:23:05 AM -21.3223 116.8090 179° South 377 434 20,600 2,829 Climbing Aus ATC (RADAR)
Sun 07:23:45 AM -21.3968 116.8088 180° South 384 442 22,500 2,720 Climbing Aus ATC (RADAR)
Sun 07:24:20 AM -21.4623 116.8085 180° South 387 445 24,000 2,329 Climbing Aus ATC (RADAR)
Sun 07:25:10 AM -21.5581 116.8067 181° South 399 459 25,800 2,018 Climbing Aus ATC (RADAR)
Sun 07:26:10 AM -21.6770 116.8069 180° South 415 478 27,700 1,860 Climbing Aus ATC (RADAR)
Sun 07:26:50 AM -21.7579 116.8063 180° South 422 486 28,900 1,600 Climbing Aus ATC (RADAR)
Sun 07:27:25 AM -21.8297 116.8063 180° South 431 496 29,700 1,286 Climbing Aus ATC (RADAR)
Sun 07:28:00 AM -21.9049 116.8055 181° South 446 513 30,400 1,371 Climbing Aus ATC (RADAR)
Sun 07:28:35 AM -21.9811 116.8061 180° South 455 524 31,300 1,543 Climbing Aus ATC (RADAR)
Sun 07:29:10 AM -22.0584 116.8055 180° South 461 531 32,200 1,624 Climbing Aus ATC (RADAR)
Sun 07:30:00 AM -22.1695 116.8035 181° South 467 537 33,600 1,526 Climbing Aus ATC (RADAR)
Sun 07:31:04 AM -22.3112 116.8042 180° South 462 532 35,100 1,277 Climbing Aus ATC (RADAR)
Sun 07:31:34 AM -22.3788 116.8037 180° South 469 540 35,600 1,200 Climbing Aus ATC (RADAR)
Sun 07:32:14 AM -22.4694 116.8029 180° South 477 549 36,500 1,280 Climbing Aus ATC (RADAR)
Sun 07:32:49 AM -22.5484 116.8030 180° South 476 548 37,200 1,280 Climbing Aus ATC (RADAR)
Sun 07:33:29 AM -22.6383 116.8030 180° South 474 545 38,100 1,200 Climbing Aus ATC (RADAR)
Sun 07:34:04 AM -22.7180 116.8022 181° South 479 551 38,700 923 Climbing Aus ATC (RADAR)
Sun 07:34:34 AM -22.7852 116.8018 180° South 476 548 39,100 720 Climbing Aus ATC (RADAR)
Sun 07:35:19 AM -22.8876 116.8012 180° South 482 555 39,600 545 Climbing Aus ATC (RADAR)
Sun 07:36:24 AM -23.0387 116.8007 180° South 490 564 40,100 286 Climbing Aus ATC (RADAR)
Sun 07:37:04 AM -23.1324 116.8005 180° South 495 570 40,100  Level Aus ATC (RADAR)
Sun 07:37:39 AM -23.2137 116.8002 180° South 493 567 40,100  Level Aus ATC (RADAR)
Sun 07:38:09 AM -23.2828 116.7999 180° South 491 565 40,100  Level Aus ATC (RADAR)
Sun 07:38:49 AM -23.3740 116.7991 180° South 487 560 40,100  Level Aus ATC (RADAR)
Sun 07:39:24 AM -23.4556 116.7991 180° South 493 567 40,100  Level Aus ATC (RADAR)
Sun 07:40:19 AM -23.5815 116.7987 180° South 487 560 40,100 58 Level Aus ATC (RADAR)
Sun 07:41:08 AM -23.6958 116.7984 180° South 485 558 40,200 71 Climbing Aus ATC (RADAR)
Sun 07:41:43 AM -23.7754 116.7979 180° South 485 558 40,200  Level Aus ATC (RADAR)
Sun 07:42:23 AM -23.8673 116.7982 180° South 488 562 40,200  Level Aus ATC (RADAR)
Sun 07:42:53 AM -23.9354 116.7979 180° South 486 559 40,200  Level Aus ATC (RADAR)
Sun 07:43:28 AM -24.0150 116.7973 180° South 484 557 40,200 -80 Level Aus ATC (RADAR)
Sun 07:44:08 AM -24.1056 116.7968 180° South 482 555 40,100 -686 Descending Aus ATC (RADAR)
Sun 07:44:38 AM -24.1737 116.7960 181° South 486 559 39,400 -1,267 Descending Aus ATC (RADAR)
Sun 07:45:38 AM -24.3115 116.7936 181° South 488 562 38,200 -626 Descending Aus ATC (RADAR)
Sun 07:46:33 AM -24.4318 116.7900 182° South 470 541 38,200  Level Aus ATC (RADAR)
Sun 07:47:13 AM -24.5190 116.7872 182° South 466 536 38,200  Level Aus ATC (RADAR)
Sun 07:47:48 AM -24.5949 116.7846 182° South 464 534 38,200  Level Aus ATC (RADAR)
Sun 07:48:18 AM -24.6608 116.7839 181° South 466 536 38,200 -86 Level Aus ATC (RADAR)
Sun 07:48:58 AM -24.7476 116.7811 182° South 464 534 38,100 -640 Descending Aus ATC (RADAR)
Sun 07:49:33 AM -24.8247 116.7807 180° South 469 540 37,400 -1,200 Descending Aus ATC (RADAR)
Sun 07:50:18 AM -24.9240 116.7799 180° South 472 543 36,500 -1,200 Descending Aus ATC (RADAR)
Sun 07:50:48 AM -24.9894 116.7769 182° South 471 542 35,900 -1,085 Descending Aus ATC (RADAR)
Sun 07:51:52 AM -25.1328 116.7727 181° South 474 545 34,800 -865 Descending Aus ATC (RADAR)
Sun 07:52:32 AM -25.2214 116.7713 181° South 474 545 34,400 -514 Descending Aus ATC (RADAR)
Sun 07:53:02 AM -25.2875 116.7711 180° South 472 543 34,200 -171 Descending Aus ATC (RADAR)
Sun 07:53:42 AM -25.3744 116.7682 182° South 467 537 34,200  Level Aus ATC (RADAR)
Sun 07:54:17 AM -25.4512 116.7664 181° South 469 540 34,200  Level Aus ATC (RADAR)
Sun 07:54:47 AM -25.5171 116.7645 182° South 469 540 34,200  Level Aus ATC (RADAR)
Sun 07:55:37 AM -25.6267 116.7624 181° South 470 541 34,200  Level Aus ATC (RADAR)
Sun 07:56:13 AM -25.7040 116.7627 180° South 472 543 34,200  Level Aus ATC (RADAR)
Sun 07:57:22 AM -25.8552 116.7520 184° South 465 535 34,200  Level Aus ATC (RADAR)
Sun 07:57:57 AM -25.9320 116.7520 180° South 468 539 34,200  Level Aus ATC (RADAR)
Sun 07:58:27 AM -25.9975 116.7518 180° South 470 541 34,200  Level Aus ATC (RADAR)
Sun 08:03:21 AM -26.6352 116.7354 182° South 34,000  Descending Aus ATC (Calculated)
Sun 08:05:00 AM -26.8409 116.6836 193° South  Level FlightAware Approximate
Sun 08:05:11 AM -26.8635 116.7294 182° South 34,000  Level Aus ATC (Calculated)
Sun 08:07:00 AM -26.6315 116.7347 North  Level FlightAware Approximate
Sun 08:08:00 AM -26.7592 116.7318 181° South  Level FlightAware Approximate
Sun 08:09:00 AM -26.6956 116.7331 181° South  Level FlightAware Approximate
Sun 08:10:00 AM -26.8233 116.7299 181° South  Level FlightAware Approximate
Sun 08:10:15 AM -27.6207 116.7096 195° South 34,000  Level Aus ATC (Calculated)
Sun 08:11:05 AM -27.6738 116.6940 181° South 490 564 34,200 108 Climbing Aus ATC (RADAR)
Sun 08:12:06 AM -27.8061 116.6900 182° South 474 545 34,200  Level Aus ATC (RADAR)
Sun 08:12:45 AM -27.8912 116.6757 188° South 467 537 34,200  Level Aus ATC (RADAR)
Sun 08:13:45 AM -28.0189 116.6521 189° South 465 535 34,200  Level Aus ATC (RADAR)
Sun 08:14:25 AM -28.1030 116.6318 192° South 460 529 34,200  Level Aus ATC (RADAR)
Sun 08:14:55 AM -28.1672 116.6178 191° South 466 536 34,200  Level Aus ATC (RADAR)
Sun 08:15:30 AM -28.2429 116.6063 188° South 468 539 34,200 -190 Level Aus ATC (RADAR)
Sun 08:15:58 AM -28.2980 116.6120 187° South 470 541 34,000  Descending FlightAware ADS-B
Sun 08:16:15 AM -28.3392 116.5936 187° South 463 533 34,200  Climbing Aus ATC (RADAR)
Sun 08:16:33 AM -28.3780 116.5990 188° South 470 541 34,000 -250 Descending FlightAware ADS-B
Sun 08:17:03 AM -28.4440 116.5880 188° South 470 541 34,000  Level FlightAware ADS-B
Sun 08:17:44 AM -28.5310 116.5730 189° South 469 540 34,000  Level FlightAware ADS-B
Sun 08:18:18 AM -28.6050 116.5610 189° South 469 540 34,000 343 Level FlightAware ADS-B
Sun 08:18:19 AM -28.6085 116.5501 189° South 467 537 34,200 387 Climbing Aus ATC (RADAR)
Sun 08:18:49 AM -28.6733 116.5397 189° South 469 540 34,200 -343 Level Aus ATC (RADAR)
Sun 08:18:54 AM -28.6820 116.5480 189° South 470 541 34,000 -308 Descending FlightAware ADS-B
Sun 08:19:28 AM -28.7560 116.5350 189° South 469 540 34,000 343 Level FlightAware ADS-B
Sun 08:19:29 AM -28.7590 116.5280 189° South 464 534 34,200 333 Climbing Aus ATC (RADAR)
Sun 08:20:04 AM -28.8336 116.5147 189° South 457 526 34,200 -343 Level Aus ATC (RADAR)
Sun 08:20:04 AM -28.8320 116.5230 189° South 469 540 34,000  Descending FlightAware ADS-B
Sun 08:20:34 AM -28.8981 116.5035 189° South 459 528 34,200  Climbing Aus ATC (RADAR)
Sun 08:20:38 AM -28.9060 116.5100 189° South 470 541 34,000 150 Descending FlightAware ADS-B
Sun 08:21:14 AM -28.9845 116.4880 189° South 467 537 34,300  Climbing Aus ATC (RADAR)
Sun 08:21:14 AM -28.9830 116.4970 189° South 470 541 34,000 -529 Descending FlightAware ADS-B
Sun 08:21:48 AM -29.0570 116.4840 189° South 470 541 34,000 514 Level FlightAware ADS-B
Sun 08:21:49 AM -29.0600 116.4788 189° South 463 533 34,300 500 Climbing Aus ATC (RADAR)
Sun 08:22:24 AM -29.1350 116.4613 189° South 472 543 34,300 -514 Level Aus ATC (RADAR)
Sun 08:22:24 AM -29.1330 116.4720 189° South 470 541 34,000  Descending FlightAware ADS-B
Sun 08:22:59 AM -29.2098 116.4503 189° South 462 532 34,300  Climbing Aus ATC (RADAR)
Sun 08:23:03 AM -29.2180 116.4570 189° South 470 541 34,000  Descending FlightAware ADS-B
Sun 08:23:34 AM -29.2854 116.4381 189° South 463 533 34,300  Climbing Aus ATC (RADAR)
Sun 08:23:34 AM -29.2840 116.4460 189° South 470 541 34,000 -529 Descending FlightAware ADS-B
Sun 08:24:08 AM -29.3580 116.4330 189° South 471 542 34,000 514 Level FlightAware ADS-B
Sun 08:24:09 AM -29.3609 116.4257 189° South 467 537 34,300 500 Climbing Aus ATC (RADAR)
Sun 08:24:44 AM -29.4371 116.4145 189° South 472 543 34,300 -500 Level Aus ATC (RADAR)
Sun 08:24:45 AM -29.4350 116.4200 189° South 473 544 34,000  Descending FlightAware ADS-B
Sun 08:25:19 AM -29.5128 116.4020 189° South 471 542 34,300  Climbing Aus ATC (RADAR)
Sun 08:25:19 AM -29.5120 116.4070 189° South 475 547 34,000 -500 Descending FlightAware ADS-B
Sun 08:25:55 AM -29.5900 116.3930 189° South 468 539 34,000 450 Level FlightAware ADS-B
Sun 08:25:59 AM -29.5998 116.3869 189° South 471 542 34,300 529 Climbing Aus ATC (RADAR)
Sun 08:26:29 AM -29.6653 116.3755 189° South 469 540 34,300 -600 Level Aus ATC (RADAR)
Sun 08:26:29 AM -29.6640 116.3810 189° South 469 540 34,000  Descending FlightAware ADS-B
Sun 08:26:59 AM -29.7307 116.3656 189° South 470 541 34,300  Climbing Aus ATC (RADAR)
Sun 08:27:00 AM -29.7320 116.3690 189° South 468 539 34,000  Descending FlightAware ADS-B
Sun 08:27:34 AM -29.8068 116.3520 189° South 470 541 34,300  Climbing Aus ATC (RADAR)
Sun 08:27:39 AM -29.8180 116.3550 189° South 474 545 34,000  Descending FlightAware ADS-B
Sun 08:28:13 AM -29.8937 116.3370 189° South 473 544 34,300  Climbing Aus ATC (RADAR)
Sun 08:28:15 AM -29.8950 116.3410 189° South 472 543 34,000 -486 Descending FlightAware ADS-B
Sun 08:28:50 AM -29.9710 116.3280 188° South 471 542 34,000 265 Level FlightAware ADS-B
Sun 08:29:23 AM -30.0441 116.3111 188° South 464 534 34,300  Climbing Aus ATC (RADAR)
Sun 08:29:26 AM -30.0470 116.3150 188° South 468 539 34,000 -649 Descending FlightAware ADS-B
Sun 08:30:00 AM -30.1210 116.3020 189° South 458 527 33,900 -1,543 Descending FlightAware ADS-B
Sun 08:30:36 AM -30.1980 116.2880 189° South 469 540 32,200 -2,914 Descending FlightAware ADS-B
Sun 08:31:10 AM -30.2720 116.2750 189° South 475 547 30,500 -2,083 Descending FlightAware ADS-B
Sun 08:31:48 AM -30.3549 116.2576 189° South 464 534 29,700 -1,610 Descending Aus ATC (RADAR)
Sun 08:31:51 AM -30.3560 116.2610 189° South 456 525 29,400 -1,886 Descending FlightAware ADS-B
Sun 08:32:23 AM -30.4265 116.2458 189° South 447 514 28,600 -2,118 Descending Aus ATC (RADAR)
Sun 08:32:25 AM -30.4290 116.2490 189° South 442 509 28,200 -2,684 Descending FlightAware ADS-B
Sun 08:33:01 AM -30.5000 116.2370 189° South 423 487 26,900 -1,737 Descending FlightAware ADS-B
Sun 08:33:03 AM -30.5063 116.2319 189° South 433 498 27,100 -1,875 Climbing Aus ATC (RADAR)
Sun 08:33:33 AM -30.5645 116.2213 189° South 423 487 25,900 -3,000 Descending Aus ATC (RADAR)
Sun 08:33:35 AM -30.5670 116.2240 189° South 411 473 25,500 -2,400 Descending FlightAware ADS-B
Sun 08:34:08 AM -30.6305 116.2102 189° South 410 472 24,500 -2,333 Descending Aus ATC (RADAR)
Sun 08:34:11 AM -30.6330 116.2130 189° South 406 467 24,100 -2,684 Descending FlightAware ADS-B
Sun 08:34:46 AM -30.6990 116.2010 189° South 390 449 22,800 -1,784 Descending FlightAware ADS-B
Sun 08:34:48 AM -30.7041 116.1976 189° South 400 460 23,000 -1,875 Climbing Aus ATC (RADAR)
Sun 08:35:18 AM -30.7585 116.1884 189° South 397 457 21,800 -2,615 Descending Aus ATC (RADAR)
Sun 08:35:27 AM -30.7730 116.1880 189° South 393 452 21,300 -2,455 Descending FlightAware ADS-B
Sun 08:36:02 AM -30.8360 116.1770 189° South 388 447 20,000 -1,833 Descending FlightAware ADS-B
Sun 08:36:03 AM -30.8390 116.1744 189° South 388 447 20,200 -2,250 Climbing Aus ATC (RADAR)
Sun 08:36:42 AM -30.9060 116.1650 188° South 372 428 18,500 -2,400 Descending FlightAware ADS-B
Sun 08:37:13 AM -30.9590 116.1560 188° South 373 429 17,400 -2,123 Descending FlightAware ADS-B
Sun 08:37:47 AM -31.0170 116.1450 189° South 358 412 16,200 -2,053 Descending FlightAware ADS-B
Sun 08:38:29 AM -31.0860 116.1330 188° South 358 412 14,800 -2,026 Descending FlightAware ADS-B
Sun 08:39:04 AM -31.1430 116.1230 189° South 341 392 13,600 -2,000 Descending FlightAware ADS-B
Sun 08:39:44 AM -31.2060 116.1120 188° South 330 380 12,300 -1,944 Descending FlightAware ADS-B
Sun 08:40:15 AM -31.2540 116.1030 189° South 325 374 11,300 -1,791 Descending FlightAware ADS-B
Sun 08:40:51 AM -31.3080 116.0940 188° South 323 372 10,300 -1,607 Descending FlightAware ADS-B
Sun 08:41:11 AM -31.3390 116.0880 189° South 326 375 9,800 -1,297 Descending FlightAware ADS-B
Sun 08:41:28 AM -31.3620 116.0840 188° South 322 371 9,500 -1,622 Descending FlightAware ADS-B
Sun 08:41:48 AM -31.3930 116.0780 189° South 313 360 8,800 -1,946 Descending FlightAware ADS-B
Sun 08:42:05 AM -31.4160 116.0750 186° South 310 357 8,300 -1,818 Descending FlightAware ADS-B
Sun 08:42:21 AM -31.4380 116.0710 189° South 306 352 7,800 -2,053 Descending FlightAware ADS-B
Sun 08:42:43 AM -31.4690 116.0650 189° South 292 336 7,000 -1,953 Descending FlightAware ADS-B
Sun 08:43:04 AM -31.4980 116.0600 188° South 296 341 6,400 -1,857 Descending FlightAware ADS-B
Sun 08:43:25 AM -31.5270 116.0550 188° South 293 337 5,700 -1,733 Descending FlightAware ADS-B
Sun 08:43:49 AM -31.5590 116.0490 189° South 277 319 5,100 -1,050 Descending FlightAware ADS-B
Sun 08:44:05 AM -31.5780 116.0460 188° South 264 304 5,000 -474 Descending FlightAware ADS-B
Sun 08:44:27 AM -31.6050 116.0410 189° South 248 285 4,800 -533 Descending FlightAware ADS-B
Sun 08:44:50 AM -31.6310 116.0360 189° South 247 284 4,600 -615 Descending FlightAware ADS-B
Sun 08:45:06 AM -31.6500 116.0330 188° South 244 281 4,400 -667 Descending FlightAware ADS-B
Sun 08:45:35 AM -31.6810 116.0270 189° South 232 267 4,100 -571 Descending FlightAware ADS-B
Sun 08:45:48 AM -31.6940 116.0250 187° South 225 259 4,000 -462 Descending FlightAware ADS-B
Sun 08:46:14 AM -31.7210 116.0200 189° South 209 241 3,800 -649 Descending FlightAware ADS-B
Sun 08:46:25 AM -31.7320 116.0180 189° South 216 249 3,600 -1,091 Descending FlightAware ADS-B
Sun 08:46:47 AM -31.7530 116.0140 189° South 211 243 3,200 -1,091 Descending FlightAware ADS-B
Sun 08:47:09 AM -31.7740 116.0100 189° South 200 230 2,800 -1,024 Descending FlightAware ADS-B
Sun 08:47:28 AM -31.7900 116.0070 189° South 194 223 2,500 -1,024 Descending FlightAware ADS-B
Sun 08:47:50 AM -31.8110 116.0030 189° South 198 228 2,100 -1,021 Descending FlightAware ADS-B
Sun 08:48:15 AM -31.8330 115.9960 195° South 184 212 1,700 -1,067 Descending FlightAware ADS-B
Sun 08:48:35 AM -31.8490 115.9920 192° South 171 197 1,300 -968 Descending FlightAware ADS-B
Sun 08:48:46 AM -31.8550 115.9900 196° South 163 188 1,200 -750 Descending FlightAware ADS-B
Sun 08:49:07 AM -31.8710 115.9850 195° South 147 169 900 -837 Descending FlightAware ADS-B
Sun 08:49:29 AM -31.8840 115.9810 195° South 132 152 600 -714 Descending FlightAware ADS-B
Sun 08:49:49 AM -31.8960 115.9780 192° South 138 159 400 -732 Descending FlightAware ADS-B
Sun 08:50:10 AM -31.9110 115.9740 193° South 134 154 100 -857 Descending FlightAware ADS-B
Sun 08:50:31 AM -31.9240 115.9700 195° South 136 157 -286 Descending FlightAware ADS-B
Sun 08:50:53 AM -31.9370 115.9660 195° South 125 144  Level FlightAware ADS-B

Login

Don't have an account? Register now (free) for customized features, flight alerts, and more!